createdAt,value
2018-03-30T00:02:17.476Z,82.56
2018-03-30T00:05:40.921Z,82.52
2018-03-30T00:09:04.200Z,82.50
2018-03-30T00:12:27.468Z,82.36
2018-03-30T00:15:50.748Z,82.55
2018-03-30T00:19:14.054Z,82.78
2018-03-30T00:22:37.418Z,82.93
2018-03-30T00:26:00.732Z,82.87
2018-03-30T00:29:24.758Z,82.85
2018-03-30T00:32:48.060Z,82.78
2018-03-30T00:36:11.329Z,82.64
2018-03-30T00:39:34.659Z,82.85
2018-03-30T00:42:57.884Z,83.19
2018-03-30T00:46:22.000Z,83.00
2018-03-30T00:49:45.288Z,82.70
2018-03-30T00:53:27.441Z,83.05
2018-03-30T00:56:51.550Z,83.48
2018-03-30T01:00:14.810Z,83.25
2018-03-30T01:03:38.902Z,83.59
2018-03-30T01:07:02.200Z,83.31
2018-03-30T01:10:25.487Z,83.33
2018-03-30T01:13:48.758Z,83.38
2018-03-30T01:17:12.050Z,82.90
2018-03-30T01:20:35.372Z,82.85
2018-03-30T01:23:59.419Z,83.52
2018-03-30T01:27:22.698Z,83.49
2018-03-30T01:30:45.992Z,83.53
2018-03-30T01:34:09.298Z,83.52
2018-03-30T01:37:32.640Z,83.65
2018-03-30T01:40:55.910Z,83.72
2018-03-30T01:44:19.184Z,83.14
2018-03-30T01:47:43.293Z,83.16
2018-03-30T01:51:06.552Z,83.51
2018-03-30T01:54:29.859Z,83.97
2018-03-30T01:57:53.137Z,84.31
2018-03-30T02:01:16.414Z,84.45
2018-03-30T02:04:39.692Z,84.58
2018-03-30T02:08:02.974Z,83.95
2018-03-30T02:11:26.257Z,83.44
2018-03-30T02:14:49.566Z,83.66
2018-03-30T02:18:12.846Z,83.74
2018-03-30T02:21:36.134Z,83.32
2018-03-30T02:24:59.405Z,83.48
2018-03-30T02:28:22.687Z,84.17
2018-03-30T02:31:46.035Z,84.75
2018-03-30T02:35:10.124Z,84.72
2018-03-30T02:38:33.404Z,84.71
2018-03-30T02:41:57.540Z,84.66
2018-03-30T02:45:20.873Z,84.64
2018-03-30T02:48:44.227Z,84.56
2018-03-30T02:52:07.518Z,84.60
2018-03-30T02:55:30.896Z,84.18
2018-03-30T02:58:54.339Z,83.96
2018-03-30T03:02:18.381Z,83.58
2018-03-30T03:05:41.673Z,84.10
2018-03-30T03:09:04.966Z,84.73
2018-03-30T03:12:28.315Z,85.16
2018-03-30T03:15:51.680Z,85.53
2018-03-30T03:19:15.033Z,85.99
2018-03-30T03:22:38.360Z,86.56
2018-03-30T03:26:01.648Z,85.49
2018-03-30T03:29:24.944Z,84.72
2018-03-30T03:32:48.315Z,85.83
2018-03-30T03:36:11.662Z,86.47
2018-03-30T03:39:34.926Z,86.68
2018-03-30T03:42:59.034Z,86.54
2018-03-30T03:46:22.382Z,87.36
2018-03-30T03:49:45.682Z,86.77
2018-03-30T03:53:11.583Z,86.50
2018-03-30T03:56:35.638Z,86.73
2018-03-30T03:59:58.976Z,87.32
2018-03-30T04:03:23.020Z,87.18
2018-03-30T04:06:46.336Z,87.05
2018-03-30T04:10:09.661Z,87.21
2018-03-30T04:13:32.948Z,86.64
2018-03-30T04:16:56.256Z,86.66
2018-03-30T04:20:19.618Z,86.21
2018-03-30T04:23:43.954Z,85.94
2018-03-30T04:27:07.258Z,85.04
2018-03-30T04:30:30.596Z,85.23
2018-03-30T04:33:53.886Z,85.11
2018-03-30T04:37:17.172Z,84.87
2018-03-30T04:40:40.005Z,84.40
2018-03-30T04:44:03.300Z,83.79
2018-03-30T04:47:26.147Z,82.92
2018-03-30T04:50:49.500Z,83.86
2018-03-30T04:54:12.383Z,83.83
2018-03-30T04:57:35.240Z,83.02
2018-03-30T05:00:58.862Z,83.32
2018-03-30T05:04:21.718Z,82.94
2018-03-30T05:07:44.550Z,82.07
2018-03-30T05:11:07.400Z,81.13
2018-03-30T05:14:30.240Z,81.95
2018-03-30T05:17:53.090Z,82.46
2018-03-30T05:21:15.940Z,82.71
2018-03-30T05:24:38.835Z,83.41
2018-03-30T05:28:02.429Z,83.76
2018-03-30T05:31:25.303Z,84.55
2018-03-30T05:34:48.142Z,83.84
2018-03-30T05:38:10.967Z,83.72
2018-03-30T05:41:33.829Z,83.29
2018-03-30T05:44:56.685Z,82.89
2018-03-30T05:48:19.508Z,82.55
2018-03-30T05:51:42.371Z,83.31
2018-03-30T05:55:05.353Z,83.79
2018-03-30T05:58:28.197Z,82.07
2018-03-30T06:01:51.177Z,81.86
2018-03-30T06:05:14.131Z,81.68
2018-03-30T06:08:37.007Z,81.38
2018-03-30T06:12:00.623Z,81.27
2018-03-30T06:15:23.462Z,82.67
2018-03-30T06:18:47.132Z,82.43
2018-03-30T06:22:10.002Z,83.05
2018-03-30T06:25:32.909Z,81.96
2018-03-30T06:28:55.897Z,81.93
2018-03-30T06:32:20.664Z,81.59
2018-03-30T06:35:44.598Z,82.72
2018-03-30T06:39:08.232Z,81.72
2018-03-30T06:42:31.236Z,81.39
2018-03-30T06:45:54.885Z,81.01
2018-03-30T06:49:17.771Z,81.17
2018-03-30T06:52:40.640Z,80.22
2018-03-30T06:56:03.557Z,80.73
2018-03-30T06:59:26.554Z,80.43
2018-03-30T07:02:49.545Z,79.56
2018-03-30T07:06:12.385Z,78.64
2018-03-30T07:09:35.484Z,78.75
2018-03-30T07:13:00.099Z,77.35
2018-03-30T07:16:23.134Z,76.56
2018-03-30T07:19:46.750Z,76.57
2018-03-30T07:23:09.684Z,76.21
2018-03-30T07:26:32.524Z,76.57
2018-03-30T07:29:55.516Z,76.74
2018-03-30T07:33:18.352Z,76.70
2018-03-30T07:36:41.249Z,75.96
2018-03-30T07:40:05.073Z,75.91
2018-03-30T07:43:27.924Z,76.20
2018-03-30T07:46:50.779Z,76.54
2018-03-30T07:50:13.636Z,75.70
2018-03-30T07:53:36.574Z,75.33
2018-03-30T07:57:00.176Z,74.94
2018-03-30T08:00:23.835Z,73.95
2018-03-30T08:03:46.689Z,74.82
2018-03-30T08:07:09.528Z,75.00
2018-03-30T08:10:32.378Z,73.88
2018-03-30T08:13:55.223Z,73.22
2018-03-30T08:17:18.057Z,73.53
2018-03-30T08:20:41.730Z,74.25
2018-03-30T08:24:04.568Z,73.47
2018-03-30T08:27:27.425Z,73.29
2018-03-30T08:30:50.281Z,73.48
2018-03-30T08:34:13.185Z,73.87
2018-03-30T08:37:36.050Z,74.02
2018-03-30T08:40:58.895Z,75.36
2018-03-30T08:44:21.814Z,75.08
2018-03-30T08:47:44.666Z,75.19
2018-03-30T08:51:07.497Z,75.42
2018-03-30T08:54:30.338Z,74.60
2018-03-30T08:57:53.198Z,73.16
2018-03-30T09:01:16.055Z,72.41
2018-03-30T09:04:38.908Z,72.29
2018-03-30T09:08:01.764Z,72.87
2018-03-30T09:11:24.651Z,73.82
2018-03-30T09:14:47.532Z,72.31
2018-03-30T09:18:10.402Z,71.12
2018-03-30T09:21:34.043Z,71.52
2018-03-30T09:24:57.678Z,71.17
2018-03-30T09:28:21.303Z,72.07
2018-03-30T09:31:44.170Z,71.07
2018-03-30T09:35:07.073Z,69.62
2018-03-30T09:38:32.485Z,68.62
2018-03-30T09:41:55.399Z,69.27
2018-03-30T09:45:18.331Z,68.58
2018-03-30T09:48:41.966Z,68.34
2018-03-30T09:52:08.922Z,67.75
2018-03-30T09:55:31.936Z,66.87
2018-03-30T09:58:54.789Z,66.44
2018-03-30T10:02:17.645Z,66.97
2018-03-30T10:05:40.555Z,67.62
2018-03-30T10:09:03.424Z,66.43
2018-03-30T10:12:26.257Z,66.96
2018-03-30T10:15:49.117Z,66.36
2018-03-30T10:19:11.932Z,65.88
2018-03-30T10:22:34.814Z,64.47
2018-03-30T10:25:58.468Z,64.08
2018-03-30T10:33:12.018Z,64.47
2018-03-30T10:36:35.648Z,63.54
2018-03-30T10:39:58.507Z,63.60
2018-03-30T10:43:22.123Z,63.76
2018-03-30T10:46:44.995Z,63.27
2018-03-30T10:50:07.868Z,63.66
2018-03-30T10:53:30.888Z,63.32
2018-03-30T10:56:53.733Z,63.46
2018-03-30T11:00:17.610Z,63.04
2018-03-30T11:03:40.493Z,62.60
2018-03-30T11:07:04.111Z,63.23
2018-03-30T11:10:27.007Z,63.65
2018-03-30T11:13:49.880Z,63.53
2018-03-30T11:17:12.704Z,62.86
2018-03-30T11:20:35.558Z,62.19
2018-03-30T11:23:58.408Z,62.04
2018-03-30T11:27:21.284Z,61.81
2018-03-30T11:30:44.187Z,61.40
2018-03-30T11:34:07.049Z,61.44
2018-03-30T11:37:30.755Z,60.55
2018-03-30T11:40:53.621Z,58.72
2018-03-30T11:44:16.540Z,58.04
2018-03-30T11:47:39.475Z,57.13
2018-03-30T11:51:04.118Z,57.96
2018-03-30T11:54:27.112Z,56.34
2018-03-30T11:57:50.003Z,56.75
2018-03-30T12:01:12.882Z,57.44
2018-03-30T12:04:35.869Z,58.00
2018-03-30T12:07:58.722Z,58.40
2018-03-30T12:11:21.588Z,58.16
2018-03-30T12:14:45.242Z,58.66
2018-03-30T12:18:09.924Z,58.25
2018-03-30T12:21:32.793Z,56.43
2018-03-30T12:24:55.793Z,54.96
2018-03-30T12:28:18.648Z,52.80
2018-03-30T12:31:41.565Z,51.00
2018-03-30T12:35:04.423Z,50.14
2018-03-30T12:38:27.420Z,49.00
2018-03-30T12:41:50.315Z,47.79
2018-03-30T12:45:13.172Z,47.80
2018-03-30T12:48:36.031Z,47.66
2018-03-30T12:51:58.861Z,47.10
2018-03-30T12:55:21.915Z,46.61
2018-03-30T12:58:44.980Z,46.21
2018-03-30T13:02:07.923Z,45.60
2018-03-30T13:05:30.787Z,46.30
2018-03-30T13:08:54.563Z,46.88
2018-03-30T13:12:17.438Z,46.76
2018-03-30T13:15:41.180Z,46.82
2018-03-30T13:19:04.119Z,46.56
2018-03-30T13:22:26.969Z,46.30
2018-03-30T13:25:49.830Z,45.09
2018-03-30T13:29:12.664Z,45.59
2018-03-30T13:32:35.562Z,45.87
2018-03-30T13:35:59.133Z,46.40
2018-03-30T13:39:22.002Z,46.04
2018-03-30T13:42:44.832Z,46.04
2018-03-30T13:46:07.689Z,46.07
2018-03-30T13:49:30.541Z,46.12
2018-03-30T13:52:53.450Z,46.41
2018-03-30T13:56:18.064Z,45.93
2018-03-30T13:59:43.532Z,45.76
2018-03-30T14:07:49.224Z,45.11
2018-03-30T14:11:13.032Z,44.75
2018-03-30T14:14:36.639Z,44.57
2018-03-30T14:18:05.111Z,44.25
2018-03-30T14:21:31.801Z,44.38
2018-03-30T14:24:57.494Z,44.42
2018-03-30T14:32:18.651Z,46.12
2018-03-30T14:35:49.399Z,46.30
2018-03-30T14:39:16.832Z,46.98
2018-03-30T14:42:40.699Z,47.82
2018-03-30T14:50:00.022Z,52.27
2018-03-30T14:53:23.854Z,53.71
2018-03-30T14:56:48.685Z,53.97
2018-03-30T15:00:19.452Z,53.77
2018-03-30T15:03:43.025Z,54.22
2018-03-30T15:07:05.876Z,54.79
2018-03-30T15:14:46.605Z,54.83
2018-03-30T15:18:21.055Z,54.84
2018-03-30T15:21:45.568Z,55.17
2018-03-30T15:25:11.091Z,55.15
2018-03-30T15:28:34.746Z,54.83
2018-03-30T15:32:08.413Z,57.87
2018-03-30T15:35:31.307Z,58.99
2018-03-30T15:38:54.921Z,59.68
2018-03-30T15:42:17.923Z,59.84
2018-03-30T15:45:45.658Z,60.69
2018-03-30T15:49:09.385Z,60.79
2018-03-30T15:52:33.201Z,60.48
2018-03-30T15:55:56.025Z,60.91
2018-03-30T15:59:18.903Z,60.34
2018-03-30T16:02:41.749Z,60.27
2018-03-30T16:06:04.622Z,59.54
2018-03-30T16:09:28.999Z,59.81
2018-03-30T16:12:56.290Z,59.71
2018-03-30T16:16:19.898Z,59.70
2018-03-30T16:19:42.203Z,60.65
2018-03-30T16:23:05.263Z,61.57
2018-03-30T16:26:28.569Z,62.29
2018-03-30T16:29:52.153Z,62.79
2018-03-30T16:33:14.533Z,63.73
2018-03-30T16:36:37.672Z,63.73
2018-03-30T16:40:00.779Z,63.74
2018-03-30T16:43:23.102Z,64.14
2018-03-30T16:46:45.424Z,64.42
2018-03-30T16:50:08.613Z,64.75
2018-03-30T16:53:30.895Z,65.52
2018-03-30T16:56:53.979Z,66.08
2018-03-30T17:00:17.200Z,66.12
2018-03-30T17:03:39.575Z,66.91
2018-03-30T17:07:01.844Z,67.86
2018-03-30T17:10:24.196Z,69.21
2018-03-30T17:13:47.313Z,69.91
2018-03-30T17:17:09.584Z,71.28
2018-03-30T17:20:33.020Z,74.22
2018-03-30T17:23:56.145Z,74.07
2018-03-30T17:27:18.405Z,74.80
2018-03-30T17:30:40.724Z,75.15
2018-03-30T17:34:03.068Z,75.29
2018-03-30T17:37:25.361Z,75.11
2018-03-30T17:40:47.638Z,73.30
2018-03-30T17:44:10.022Z,71.87
2018-03-30T17:47:32.322Z,72.08
2018-03-30T17:50:55.415Z,71.53
2018-03-30T17:54:17.715Z,71.73
2018-03-30T17:57:40.054Z,72.69
2018-03-30T18:01:02.401Z,73.35
2018-03-30T18:04:25.466Z,73.05
2018-03-30T18:07:47.959Z,73.51
2018-03-30T18:11:11.012Z,73.07
2018-03-30T18:14:34.080Z,75.23
2018-03-30T18:17:56.431Z,74.99
2018-03-30T18:21:19.490Z,75.88
2018-03-30T18:24:42.566Z,76.34
2018-03-30T18:28:05.684Z,75.48
2018-03-30T18:31:27.971Z,76.18
2018-03-30T18:34:51.027Z,76.16
2018-03-30T18:38:14.114Z,77.27
2018-03-30T18:41:37.181Z,77.69
2018-03-30T18:44:59.489Z,77.57
2018-03-30T18:48:21.767Z,77.55
2018-03-30T18:51:44.825Z,77.70
2018-03-30T18:55:07.140Z,78.00
2018-03-30T18:58:29.415Z,77.23
2018-03-30T19:01:51.692Z,76.98
2018-03-30T19:05:14.984Z,76.47
2018-03-30T19:08:37.332Z,76.65
2018-03-30T19:12:00.440Z,75.49
2018-03-30T19:15:22.708Z,73.88
2018-03-30T19:18:45.016Z,73.24
2018-03-30T19:22:08.074Z,74.87
2018-03-30T19:25:31.241Z,76.13
2018-03-30T19:29:09.909Z,74.84
2018-03-30T19:32:32.979Z,74.23
2018-03-30T19:35:56.034Z,74.08
2018-03-30T19:39:18.376Z,72.09
2018-03-30T19:42:41.458Z,72.69
2018-03-30T19:46:04.511Z,74.77
2018-03-30T19:49:27.566Z,75.76
2018-03-30T19:52:49.821Z,74.96
2018-03-30T19:56:12.107Z,75.79
2018-03-30T19:59:35.213Z,75.00
2018-03-30T20:02:57.492Z,75.74
2018-03-30T20:06:19.778Z,74.91
2018-03-30T20:09:42.241Z,73.98
2018-03-30T20:13:04.513Z,72.65
2018-03-30T20:16:26.795Z,73.31
2018-03-30T20:19:49.871Z,73.65
2018-03-30T20:23:12.966Z,72.10
2018-03-30T20:26:35.265Z,73.73
2018-03-30T20:29:58.340Z,74.18
2018-03-30T20:33:21.430Z,74.63
2018-03-30T20:36:43.733Z,74.40
2018-03-30T20:40:06.085Z,73.52
2018-03-30T20:43:29.136Z,73.27
2018-03-30T20:46:51.472Z,73.76
2018-03-30T20:50:13.742Z,72.93
2018-03-30T20:53:37.124Z,75.37
2018-03-30T20:57:00.283Z,74.96
2018-03-30T21:00:22.566Z,76.31
2018-03-30T21:03:44.856Z,75.56
2018-03-30T21:07:07.918Z,75.64
2018-03-30T21:10:30.982Z,76.00
2018-03-30T21:13:54.058Z,75.53
2018-03-30T21:17:17.096Z,74.46
2018-03-30T21:20:39.792Z,75.23
2018-03-30T21:24:02.314Z,75.41
2018-03-30T21:27:25.351Z,75.14
2018-03-30T21:30:47.623Z,75.27
2018-03-30T21:34:10.083Z,76.21
2018-03-30T21:37:32.398Z,77.71
2018-03-30T21:40:55.437Z,77.65
2018-03-30T21:44:17.803Z,77.88
2018-03-30T21:47:40.844Z,78.16
2018-03-30T21:51:03.275Z,77.57
2018-03-30T21:54:26.328Z,77.78
2018-03-30T21:57:48.761Z,78.34
2018-03-30T22:01:11.830Z,78.13
2018-03-30T22:04:34.876Z,77.67
2018-03-30T22:07:57.230Z,77.89
2018-03-30T22:11:20.298Z,77.68
2018-03-30T22:14:43.698Z,78.61
2018-03-30T22:18:05.991Z,79.18
2018-03-30T22:21:29.073Z,79.13
2018-03-30T22:24:51.368Z,78.24
2018-03-30T22:28:13.631Z,78.58
2018-03-30T22:31:35.898Z,77.98
2018-03-30T22:34:58.188Z,77.62
2018-03-30T22:38:21.227Z,77.71
2018-03-30T22:41:43.523Z,77.78
2018-03-30T22:45:06.802Z,78.05
2018-03-30T22:48:29.872Z,76.93
2018-03-30T22:51:52.976Z,77.18
2018-03-30T22:55:16.007Z,77.86
2018-03-30T22:58:39.070Z,78.58
2018-03-30T23:02:02.137Z,78.08
2018-03-30T23:05:25.173Z,78.20
2018-03-30T23:08:47.434Z,77.70
2018-03-30T23:12:09.711Z,77.42
2018-03-30T23:15:31.985Z,78.59
2018-03-30T23:18:54.251Z,79.69
2018-03-30T23:22:16.596Z,78.60
2018-03-30T23:25:38.922Z,78.68
2018-03-30T23:29:01.200Z,78.64
2018-03-30T23:32:23.544Z,78.86
2018-03-30T23:35:45.867Z,79.84
2018-03-30T23:39:08.127Z,80.84
2018-03-30T23:42:30.394Z,81.37
2018-03-30T23:45:52.673Z,80.88
2018-03-30T23:49:14.998Z,80.47
2018-03-30T23:52:37.266Z,81.71
2018-03-30T23:55:59.730Z,80.02
2018-03-30T23:59:22.041Z,81.04
